createdAt,value
2022-07-28T00:00:44.673Z,12.64
2022-07-28T00:03:11.450Z,12.53
2022-07-28T00:05:38.620Z,12.59
2022-07-28T00:08:05.499Z,12.54
2022-07-28T00:10:32.514Z,12.45
2022-07-28T00:13:01.902Z,12.43
2022-07-28T00:15:30.800Z,12.40
2022-07-28T00:17:57.731Z,12.39
2022-07-28T00:20:24.488Z,12.43
2022-07-28T00:22:51.093Z,12.38
2022-07-28T00:25:17.734Z,12.34
2022-07-28T00:27:44.609Z,12.30
2022-07-28T00:30:11.856Z,12.30
2022-07-28T00:32:39.358Z,12.24
2022-07-28T00:35:08.324Z,12.33
2022-07-28T00:37:35.717Z,12.24
2022-07-28T00:40:08.135Z,12.22
2022-07-28T00:42:35.238Z,12.32
2022-07-28T00:45:02.115Z,12.29
2022-07-28T00:47:33.640Z,12.23
2022-07-28T00:50:02.341Z,12.16
2022-07-28T00:52:29.111Z,12.12
2022-07-28T00:54:57.979Z,12.14
2022-07-28T00:57:24.710Z,12.09
2022-07-28T00:59:51.733Z,12.07
2022-07-28T01:02:19.269Z,12.02
2022-07-28T01:04:46.661Z,12.12
2022-07-28T01:22:29.850Z,12.09
2022-07-28T01:25:12.463Z,12.11
2022-07-28T01:27:45.178Z,11.94
2022-07-28T01:30:27.820Z,11.98
2022-07-28T01:33:12.578Z,11.95
2022-07-28T01:35:46.513Z,11.97
2022-07-28T01:38:14.531Z,11.99
2022-07-28T01:40:45.582Z,11.98
2022-07-28T01:43:21.296Z,11.95
2022-07-28T01:45:47.915Z,11.95
2022-07-28T01:48:17.404Z,11.93
2022-07-28T01:50:48.274Z,11.89
2022-07-28T01:53:16.733Z,11.99
2022-07-28T01:55:45.085Z,12.11
2022-07-28T01:58:14.092Z,12.04
2022-07-28T02:00:42.975Z,12.01
2022-07-28T02:03:12.492Z,11.99
2022-07-28T02:05:43.280Z,11.93
2022-07-28T02:08:11.854Z,11.98
2022-07-28T02:10:42.822Z,11.94
2022-07-28T02:13:11.550Z,12.03
2022-07-28T02:15:40.928Z,11.94
2022-07-28T02:18:10.508Z,11.96
2022-07-28T02:20:38.119Z,11.86
2022-07-28T02:23:07.496Z,11.90
2022-07-28T02:25:38.660Z,11.88
2022-07-28T02:28:08.126Z,11.91
2022-07-28T02:30:41.918Z,11.87
2022-07-28T02:33:14.997Z,11.78
2022-07-28T02:36:00.494Z,11.74
2022-07-28T02:38:39.292Z,11.71
2022-07-28T02:41:15.559Z,11.72
2022-07-28T02:43:50.270Z,11.60
2022-07-28T02:46:22.415Z,11.69
2022-07-28T02:48:54.702Z,11.68
2022-07-28T02:51:25.038Z,11.64
2022-07-28T02:53:53.583Z,11.62
2022-07-28T02:56:20.977Z,11.67
2022-07-28T02:58:48.434Z,11.64
2022-07-28T03:01:19.268Z,11.55
2022-07-28T03:03:50.509Z,11.59
2022-07-28T03:06:28.390Z,11.59
2022-07-28T03:08:55.418Z,11.55
2022-07-28T03:11:22.045Z,11.54
2022-07-28T03:13:48.733Z,11.52
2022-07-28T03:16:15.607Z,11.54
2022-07-28T03:18:42.578Z,11.58
2022-07-28T03:21:11.403Z,11.55
2022-07-28T03:23:43.858Z,11.52
2022-07-28T03:26:21.273Z,11.50
2022-07-28T03:28:51.792Z,11.47
2022-07-28T03:31:20.423Z,11.42
2022-07-28T03:33:48.222Z,11.48
2022-07-28T03:36:19.837Z,11.48
2022-07-28T03:38:57.708Z,11.54
2022-07-28T03:41:26.634Z,11.50
2022-07-28T03:43:54.825Z,11.49
2022-07-28T03:46:21.841Z,11.44
2022-07-28T03:48:48.539Z,11.46
2022-07-28T03:51:15.267Z,11.46
2022-07-28T03:53:42.356Z,11.40
2022-07-28T03:56:09.134Z,11.44
2022-07-28T03:58:40.914Z,11.40
2022-07-28T04:01:07.610Z,11.33
2022-07-28T04:03:42.658Z,11.35
2022-07-28T04:06:15.529Z,11.39
2022-07-28T04:08:44.200Z,11.49
2022-07-28T04:11:11.200Z,11.42
2022-07-28T04:13:38.131Z,11.43
2022-07-28T04:16:07.099Z,11.43
2022-07-28T04:18:34.578Z,11.51
2022-07-28T04:21:01.209Z,11.47
2022-07-28T04:23:29.117Z,11.50
2022-07-28T04:25:55.803Z,11.49
2022-07-28T04:28:22.620Z,11.48
2022-07-28T04:30:49.384Z,11.56
2022-07-28T04:33:18.175Z,11.48
2022-07-28T04:35:46.155Z,11.44
2022-07-28T04:38:15.146Z,11.46
2022-07-28T04:40:43.560Z,11.56
2022-07-28T04:43:13.166Z,11.64
2022-07-28T04:45:45.897Z,11.60
2022-07-28T04:48:20.300Z,11.66
2022-07-28T04:50:47.098Z,11.70
2022-07-28T04:53:14.121Z,11.81
2022-07-28T04:55:41.203Z,11.78
2022-07-28T04:58:08.717Z,11.93
2022-07-28T05:00:36.246Z,12.04
2022-07-28T05:03:04.444Z,12.18
2022-07-28T05:05:31.657Z,12.20
2022-07-28T05:07:58.298Z,12.31
2022-07-28T05:10:25.185Z,12.35
2022-07-28T05:12:53.338Z,12.27
2022-07-28T05:15:20.086Z,12.07
2022-07-28T05:17:46.836Z,12.09
2022-07-28T05:20:13.863Z,11.97
2022-07-28T05:22:48.079Z,12.01
2022-07-28T05:25:16.433Z,12.00
2022-07-28T05:27:43.548Z,12.11
2022-07-28T05:30:11.570Z,12.43
2022-07-28T05:32:38.399Z,12.39
2022-07-28T05:35:08.407Z,12.46
2022-07-28T05:37:36.167Z,12.48
2022-07-28T05:40:10.075Z,12.70
2022-07-28T05:42:37.193Z,12.97
2022-07-28T05:45:15.799Z,13.15
2022-07-28T05:47:48.765Z,13.21
2022-07-28T05:50:17.209Z,13.41
2022-07-28T05:52:44.201Z,13.82
2022-07-28T05:55:11.086Z,14.11
2022-07-28T05:57:38.858Z,14.43
2022-07-28T06:00:14.246Z,14.72
2022-07-28T06:02:42.298Z,14.90
2022-07-28T06:05:09.459Z,15.07
2022-07-28T06:07:42.855Z,15.58
2022-07-28T06:10:16.364Z,15.61
2022-07-28T06:12:45.137Z,15.70
2022-07-28T06:15:26.035Z,15.49
2022-07-28T06:17:55.678Z,15.88
2022-07-28T06:20:25.122Z,16.42
2022-07-28T06:22:55.177Z,15.65
2022-07-28T06:25:24.662Z,16.32
2022-07-28T06:27:53.318Z,15.82
2022-07-28T06:30:21.006Z,15.55
2022-07-28T06:32:48.622Z,16.02
2022-07-28T06:35:16.933Z,15.80
2022-07-28T06:37:46.694Z,16.47
2022-07-28T06:40:14.850Z,16.07
2022-07-28T06:42:43.229Z,16.24
2022-07-28T06:45:20.752Z,16.35
2022-07-28T06:47:49.517Z,16.84
2022-07-28T06:50:25.687Z,16.66
2022-07-28T06:52:55.359Z,17.01
2022-07-28T06:55:22.209Z,17.45
2022-07-28T06:57:49.413Z,17.27
2022-07-28T07:00:16.412Z,17.41
2022-07-28T07:02:43.775Z,17.84
2022-07-28T07:05:14.651Z,16.99
2022-07-28T07:07:43.542Z,16.41
2022-07-28T07:10:11.790Z,16.47
2022-07-28T07:12:38.952Z,16.39
2022-07-28T07:15:07.932Z,16.88
2022-07-28T07:17:37.341Z,16.84
2022-07-28T07:20:08.782Z,16.69
2022-07-28T07:22:41.423Z,16.67
2022-07-28T07:25:16.646Z,17.10
2022-07-28T07:27:44.474Z,17.54
2022-07-28T07:30:17.944Z,17.46
2022-07-28T07:32:45.012Z,17.77
2022-07-28T07:35:12.431Z,17.75
2022-07-28T07:37:39.954Z,17.73
2022-07-28T07:40:07.595Z,17.50
2022-07-28T07:42:34.357Z,17.30
2022-07-28T07:45:01.638Z,17.06
2022-07-28T07:47:29.054Z,17.57
2022-07-28T07:49:55.686Z,17.53
2022-07-28T07:52:22.745Z,17.64
2022-07-28T07:54:49.424Z,17.63
2022-07-28T07:57:17.160Z,17.88
2022-07-28T07:59:43.877Z,17.70
2022-07-28T08:02:10.569Z,17.59
2022-07-28T08:04:38.638Z,18.14
2022-07-28T08:07:07.301Z,18.06
2022-07-28T08:09:34.825Z,18.18
2022-07-28T08:12:01.727Z,18.63
2022-07-28T08:14:28.384Z,18.95
2022-07-28T08:16:56.962Z,19.38
2022-07-28T08:19:23.730Z,19.55
2022-07-28T08:21:51.175Z,19.74
2022-07-28T08:24:32.780Z,19.66
2022-07-28T08:27:04.799Z,19.29
2022-07-28T08:29:31.857Z,19.51
2022-07-28T08:31:59.981Z,19.48
2022-07-28T08:34:33.384Z,18.89
2022-07-28T08:37:03.207Z,18.79
2022-07-28T08:39:32.638Z,19.14
2022-07-28T08:42:22.469Z,19.31
2022-07-28T08:45:05.043Z,19.39
2022-07-28T08:47:58.676Z,18.79
2022-07-28T08:50:25.618Z,19.27
2022-07-28T08:52:54.064Z,19.19
2022-07-28T08:55:31.498Z,19.03
2022-07-28T08:58:01.829Z,19.14
2022-07-28T09:00:29.822Z,18.98
2022-07-28T09:02:56.744Z,19.12
2022-07-28T09:05:24.413Z,19.07
2022-07-28T09:07:55.410Z,19.23
2022-07-28T09:10:24.768Z,19.26
2022-07-28T09:12:53.490Z,19.17
2022-07-28T09:15:20.113Z,19.02
2022-07-28T09:17:48.361Z,19.04
2022-07-28T09:20:16.366Z,19.11
2022-07-28T09:23:04.576Z,19.63
2022-07-28T09:25:31.517Z,19.37
2022-07-28T09:28:20.179Z,19.52
2022-07-28T09:30:53.999Z,19.27
2022-07-28T09:33:41.828Z,19.56
2022-07-28T09:36:15.592Z,19.86
2022-07-28T09:38:42.438Z,19.69
2022-07-28T09:41:10.487Z,19.91
2022-07-28T09:43:44.888Z,20.22
2022-07-28T09:46:20.206Z,19.97
2022-07-28T09:48:52.777Z,20.13
2022-07-28T09:51:24.746Z,20.41
2022-07-28T09:53:53.620Z,20.33
2022-07-28T09:56:23.339Z,20.56
2022-07-28T09:58:55.864Z,20.85
2022-07-28T10:01:31.173Z,20.88
2022-07-28T10:04:05.071Z,21.13
2022-07-28T10:06:37.879Z,20.80
2022-07-28T10:09:08.308Z,20.38
2022-07-28T10:11:41.606Z,20.43
2022-07-28T10:14:10.934Z,20.56
2022-07-28T10:16:52.530Z,19.79
2022-07-28T10:19:19.332Z,19.98
2022-07-28T10:21:50.282Z,20.27
2022-07-28T10:24:25.191Z,20.10
2022-07-28T10:26:54.006Z,20.33
2022-07-28T10:29:22.520Z,20.56
2022-07-28T10:31:55.033Z,20.79
2022-07-28T10:34:28.237Z,21.31
2022-07-28T10:36:56.012Z,21.33
2022-07-28T10:39:32.202Z,21.03
2022-07-28T10:42:00.848Z,21.23
2022-07-28T10:44:29.370Z,21.44
2022-07-28T10:46:57.207Z,21.51
2022-07-28T10:49:27.602Z,21.68
2022-07-28T10:52:02.350Z,22.20
2022-07-28T10:54:47.506Z,22.19
2022-07-28T10:57:16.211Z,21.94
2022-07-28T11:00:12.826Z,22.33
2022-07-28T11:03:00.753Z,21.96
2022-07-28T11:05:40.246Z,22.65
2022-07-28T11:08:27.972Z,22.57
2022-07-28T11:11:08.802Z,22.52
2022-07-28T11:13:41.241Z,22.79
2022-07-28T11:16:15.340Z,22.34
2022-07-28T11:19:08.177Z,22.42
2022-07-28T11:22:15.808Z,22.24
2022-07-28T11:25:19.819Z,22.58
2022-07-28T11:27:51.293Z,22.72
2022-07-28T11:30:36.219Z,23.73
2022-07-28T11:33:04.920Z,23.70
2022-07-28T11:35:57.438Z,24.02
2022-07-28T11:38:26.759Z,23.36
2022-07-28T11:40:56.048Z,23.58
2022-07-28T11:43:28.587Z,23.65
2022-07-28T11:46:10.090Z,23.19
2022-07-28T11:51:25.139Z,23.27
2022-07-28T11:53:55.083Z,23.20
2022-07-28T11:56:31.712Z,23.53
2022-07-28T11:59:03.533Z,22.68
2022-07-28T12:01:31.717Z,23.18
2022-07-28T12:04:00.610Z,23.23
2022-07-28T12:06:42.671Z,22.33
2022-07-28T12:09:11.403Z,22.78
2022-07-28T12:11:43.354Z,22.74
2022-07-28T12:14:16.350Z,22.67
2022-07-28T12:16:46.011Z,23.14
2022-07-28T12:19:16.007Z,23.54
2022-07-28T12:21:52.703Z,23.34
2022-07-28T12:24:44.673Z,22.44
2022-07-28T12:27:14.817Z,22.35
2022-07-28T12:29:42.660Z,23.42
2022-07-28T12:32:10.193Z,23.41
2022-07-28T12:34:39.978Z,22.86
2022-07-28T12:37:12.689Z,23.10
2022-07-28T12:39:42.447Z,22.66
2022-07-28T12:42:14.114Z,23.11
2022-07-28T12:44:46.277Z,23.14
2022-07-28T12:47:15.401Z,23.51
2022-07-28T12:49:45.390Z,23.25
2022-07-28T12:52:24.983Z,23.46
2022-07-28T12:54:56.128Z,22.82
2022-07-28T12:57:49.358Z,24.25
2022-07-28T13:00:23.402Z,22.89
2022-07-28T13:02:52.271Z,22.88
2022-07-28T13:05:28.086Z,23.55
2022-07-28T13:08:04.870Z,23.31
2022-07-28T13:10:31.904Z,23.31
2022-07-28T13:13:04.763Z,23.47
2022-07-28T13:15:32.121Z,23.81
2022-07-28T13:17:59.951Z,23.33
2022-07-28T13:20:27.299Z,23.48
2022-07-28T13:22:57.423Z,23.00
2022-07-28T13:25:25.698Z,22.40
2022-07-28T13:27:55.312Z,22.77
2022-07-28T13:30:24.168Z,23.19
2022-07-28T13:32:51.827Z,23.31
2022-07-28T13:35:20.901Z,22.87
2022-07-28T13:37:50.410Z,22.69
2022-07-28T13:40:17.130Z,22.52
2022-07-28T13:42:53.115Z,23.04
2022-07-28T13:45:30.343Z,23.40
2022-07-28T13:47:57.118Z,23.03
2022-07-28T13:50:24.237Z,22.93
2022-07-28T13:52:51.215Z,22.81
2022-07-28T13:55:19.763Z,23.41
2022-07-28T13:57:49.039Z,23.40
2022-07-28T14:00:18.690Z,23.12
2022-07-28T14:02:49.452Z,23.33
2022-07-28T14:05:16.484Z,23.01
2022-07-28T14:07:48.305Z,23.18
2022-07-28T14:10:17.822Z,23.84
2022-07-28T14:12:46.262Z,23.94
2022-07-28T14:15:13.723Z,23.31
2022-07-28T14:17:42.797Z,23.65
2022-07-28T14:20:13.412Z,24.11
2022-07-28T14:22:40.930Z,24.15
2022-07-28T14:25:09.272Z,24.08
2022-07-28T14:27:36.380Z,23.43
2022-07-28T14:30:04.386Z,23.46
2022-07-28T14:32:31.830Z,24.24
2022-07-28T14:35:02.342Z,24.24
2022-07-28T14:37:36.205Z,23.81
2022-07-28T14:40:09.320Z,24.00
2022-07-28T14:42:36.326Z,24.43
2022-07-28T14:45:05.548Z,23.89
2022-07-28T14:47:45.004Z,23.95
2022-07-28T14:50:13.469Z,24.31
2022-07-28T14:52:40.571Z,23.97
2022-07-28T14:55:14.985Z,23.54
2022-07-28T14:57:48.303Z,23.49
2022-07-28T15:00:23.842Z,23.81
2022-07-28T15:02:54.338Z,23.45
2022-07-28T15:05:23.944Z,23.79
2022-07-28T15:07:52.252Z,23.17
2022-07-28T15:10:20.102Z,22.86
2022-07-28T15:12:46.882Z,23.35
2022-07-28T15:15:13.635Z,23.26
2022-07-28T15:17:40.373Z,23.03
2022-07-28T15:20:09.042Z,22.88
2022-07-28T15:22:35.796Z,22.96
2022-07-28T15:25:02.505Z,22.97
2022-07-28T15:27:33.285Z,22.90
2022-07-28T15:30:02.506Z,22.87
2022-07-28T15:32:29.893Z,23.12
2022-07-28T15:34:56.674Z,23.07
2022-07-28T15:37:23.336Z,22.91
2022-07-28T15:39:50.273Z,22.80
2022-07-28T15:42:16.962Z,22.56
2022-07-28T15:44:43.637Z,22.50
2022-07-28T15:47:10.226Z,22.57
2022-07-28T15:49:36.795Z,22.61
2022-07-28T15:52:05.212Z,22.70
2022-07-28T15:54:31.906Z,22.75
2022-07-28T15:56:59.065Z,22.67
2022-07-28T15:59:48.871Z,22.83
2022-07-28T16:02:18.653Z,23.06
2022-07-28T16:04:53.208Z,23.15
2022-07-28T16:07:24.858Z,22.99
2022-07-28T16:09:56.511Z,23.15
2022-07-28T16:12:25.457Z,22.79
2022-07-28T16:14:55.864Z,22.70
2022-07-28T16:17:23.538Z,22.86
2022-07-28T16:19:51.263Z,22.84
2022-07-28T16:22:22.710Z,23.01
2022-07-28T16:24:50.732Z,23.38
2022-07-28T16:27:17.741Z,23.18
2022-07-28T16:29:45.961Z,23.22
2022-07-28T16:32:13.006Z,23.17
2022-07-28T16:34:39.667Z,22.95
2022-07-28T16:37:06.503Z,22.89
2022-07-28T16:39:34.327Z,23.03
2022-07-28T16:42:01.590Z,23.24
2022-07-28T16:44:28.626Z,23.05
2022-07-28T16:46:55.559Z,22.98
2022-07-28T16:49:22.477Z,23.08
2022-07-28T16:51:49.156Z,22.92
2022-07-28T16:54:16.239Z,22.98
2022-07-28T16:56:43.358Z,22.98
2022-07-28T16:59:10.321Z,22.97
2022-07-28T17:01:38.906Z,22.71
2022-07-28T17:04:09.111Z,22.57
2022-07-28T17:06:38.721Z,22.37
2022-07-28T17:09:05.602Z,22.47
2022-07-28T17:11:32.292Z,22.50
2022-07-28T17:13:58.963Z,22.43
2022-07-28T17:16:28.134Z,22.65
2022-07-28T17:18:54.887Z,22.54
2022-07-28T17:21:21.503Z,22.85
2022-07-28T17:23:48.659Z,22.48
2022-07-28T17:27:30.693Z,22.51
2022-07-28T17:29:02.293Z,22.27
2022-07-28T17:31:29.104Z,22.30
2022-07-28T17:34:00.304Z,22.37
2022-07-28T17:36:29.319Z,22.36
2022-07-28T17:38:55.861Z,22.22
2022-07-28T17:41:22.869Z,22.22
2022-07-28T17:43:49.539Z,22.32
2022-07-28T17:46:21.515Z,22.10
2022-07-28T17:48:48.708Z,22.12
2022-07-28T17:51:15.629Z,22.06
2022-07-28T17:53:42.954Z,21.96
2022-07-28T17:56:12.368Z,21.97
2022-07-28T17:58:39.540Z,21.95
2022-07-28T18:01:13.744Z,22.00
2022-07-28T18:03:57.649Z,21.93
2022-07-28T18:06:32.950Z,22.02
2022-07-28T18:09:05.553Z,21.85
2022-07-28T18:11:55.805Z,21.80
2022-07-28T18:14:26.891Z,21.72
2022-07-28T18:16:53.655Z,21.69
2022-07-28T18:19:20.261Z,21.70
2022-07-28T18:21:46.828Z,21.63
2022-07-28T18:24:13.809Z,21.64
2022-07-28T18:26:40.656Z,21.58
2022-07-28T18:29:07.387Z,21.50
2022-07-28T18:31:33.988Z,21.52
2022-07-28T18:34:00.644Z,21.53
2022-07-28T18:36:28.325Z,21.52
2022-07-28T18:38:54.882Z,21.43
2022-07-28T18:41:21.763Z,21.43
2022-07-28T18:43:48.410Z,21.41
2022-07-28T18:46:15.057Z,21.31
2022-07-28T18:48:42.811Z,21.32
2022-07-28T18:51:09.763Z,21.19
2022-07-28T18:53:37.474Z,21.18
2022-07-28T18:56:04.327Z,21.16
2022-07-28T18:58:31.116Z,21.05
2022-07-28T19:00:57.754Z,21.03
2022-07-28T19:03:26.685Z,20.99
2022-07-28T19:05:54.382Z,20.88
2022-07-28T19:08:21.339Z,20.89
2022-07-28T19:10:49.685Z,20.87
2022-07-28T19:13:16.445Z,20.82
2022-07-28T19:15:43.369Z,20.85
2022-07-28T19:18:12.093Z,20.77
2022-07-28T19:20:44.814Z,20.77
2022-07-28T19:23:11.996Z,20.72
2022-07-28T19:25:40.050Z,20.72
2022-07-28T19:28:06.985Z,20.73
2022-07-28T19:30:34.113Z,20.69
2022-07-28T19:33:00.943Z,20.72
2022-07-28T19:35:27.997Z,20.63
2022-07-28T19:37:56.760Z,20.59
2022-07-28T19:40:25.594Z,20.53
2022-07-28T19:42:53.666Z,20.53
2022-07-28T19:45:20.570Z,20.53
2022-07-28T19:47:49.760Z,20.44
2022-07-28T19:50:16.895Z,20.39
2022-07-28T19:52:43.696Z,20.35
2022-07-28T19:55:10.366Z,20.33
2022-07-28T19:57:37.015Z,20.24
2022-07-28T20:00:04.961Z,20.19
2022-07-28T20:02:31.657Z,20.16
2022-07-28T20:04:58.382Z,20.10
2022-07-28T20:07:25.273Z,20.12
2022-07-28T20:09:51.904Z,20.06
2022-07-28T20:12:18.875Z,20.05
2022-07-28T20:14:45.523Z,20.10
2022-07-28T20:17:29.531Z,20.02
2022-07-28T20:19:58.760Z,19.97
2022-07-28T20:22:25.530Z,19.95
2022-07-28T20:24:52.217Z,20.01
2022-07-28T20:27:19.715Z,20.06
2022-07-28T20:29:46.381Z,20.06
2022-07-28T20:32:12.973Z,20.04
2022-07-28T20:34:39.888Z,19.95
2022-07-28T20:37:06.702Z,19.90
2022-07-28T20:39:53.430Z,19.87
2022-07-28T20:42:20.238Z,19.84
2022-07-28T20:44:46.892Z,19.78
2022-07-28T20:47:13.611Z,19.80
2022-07-28T20:49:40.567Z,19.72
2022-07-28T20:52:07.248Z,19.69
2022-07-28T20:54:33.898Z,19.62
2022-07-28T20:57:01.787Z,19.58
2022-07-28T20:59:28.396Z,19.53
2022-07-28T21:01:56.056Z,19.44
2022-07-28T21:04:24.574Z,19.45
2022-07-28T21:06:52.764Z,19.37
2022-07-28T21:09:22.719Z,19.34
2022-07-28T21:11:49.571Z,19.26
2022-07-28T21:14:16.739Z,19.24
2022-07-28T21:16:43.634Z,19.21
2022-07-28T21:19:10.296Z,19.26
2022-07-28T21:21:36.921Z,19.16
2022-07-28T21:24:05.176Z,19.20
2022-07-28T21:26:31.950Z,19.22
2022-07-28T21:32:04.856Z,19.15
2022-07-28T21:34:32.331Z,19.02
2022-07-28T21:37:04.098Z,18.89
2022-07-28T21:39:31.592Z,18.85
2022-07-28T21:41:58.398Z,18.84
2022-07-28T21:44:25.245Z,18.82
2022-07-28T21:46:52.720Z,18.84
2022-07-28T21:49:19.296Z,18.85
2022-07-28T21:51:46.568Z,18.79
2022-07-28T21:54:13.828Z,18.79
2022-07-28T21:56:40.930Z,18.68
2022-07-28T21:59:07.794Z,18.61
2022-07-28T22:01:36.485Z,18.54
2022-07-28T22:04:03.648Z,18.56
2022-07-28T22:06:30.455Z,18.45
2022-07-28T22:08:57.079Z,18.43
2022-07-28T22:11:26.481Z,18.53
2022-07-28T22:13:53.959Z,18.43
2022-07-28T22:16:20.653Z,18.46
2022-07-28T22:18:47.393Z,18.43
2022-07-28T22:21:14.172Z,18.46
2022-07-28T22:23:41.917Z,18.42
2022-07-28T22:26:08.748Z,18.41
2022-07-28T22:28:36.053Z,18.43
2022-07-28T22:31:08.799Z,18.36
2022-07-28T22:33:40.038Z,18.37
2022-07-28T22:36:09.253Z,18.29
2022-07-28T22:38:36.706Z,18.35
2022-07-28T22:41:03.582Z,18.30
2022-07-28T22:43:34.661Z,18.29
2022-07-28T22:46:01.694Z,18.34
2022-07-28T22:48:28.926Z,18.33
2022-07-28T22:50:55.976Z,18.28
2022-07-28T22:53:27.724Z,18.28
2022-07-28T22:55:54.668Z,18.27
2022-07-28T22:58:21.305Z,18.25
2022-07-28T23:00:49.254Z,18.19
2022-07-28T23:03:18.399Z,18.19
2022-07-28T23:05:45.685Z,18.19
2022-07-28T23:08:13.035Z,18.18
2022-07-28T23:10:40.560Z,18.17
2022-07-28T23:13:07.463Z,18.17
2022-07-28T23:15:39.371Z,18.14
2022-07-28T23:18:11.616Z,18.08
2022-07-28T23:20:39.177Z,18.16
2022-07-28T23:23:07.836Z,18.09
2022-07-28T23:25:40.764Z,18.02
2022-07-28T23:28:09.010Z,18.05
2022-07-28T23:30:35.887Z,18.05
2022-07-28T23:33:02.773Z,18.01
2022-07-28T23:35:29.613Z,18.02
2022-07-28T23:37:56.456Z,17.99
2022-07-28T23:40:23.379Z,17.91
2022-07-28T23:42:50.172Z,17.98
2022-07-28T23:45:16.873Z,17.99
2022-07-28T23:47:44.570Z,18.09
2022-07-28T23:50:11.396Z,18.07
2022-07-28T23:52:38.160Z,18.08
2022-07-28T23:55:05.681Z,18.13
2022-07-28T23:57:32.437Z,18.10
